sensor_id;sensor_type;location;lat;lon;timestamp;pressure;altitude;pressure_sealevel;temperature;humidity
55590;BME280;41452;42.780;23.116;2022-08-19T00:00:28;94154.78;;;19.31;75.28
55590;BME280;41452;42.780;23.116;2022-08-19T00:02:54;94157.38;;;19.36;74.82
55590;BME280;41452;42.780;23.116;2022-08-19T00:05:21;94108.91;;;19.02;74.19
55590;BME280;41452;42.780;23.116;2022-08-19T00:07:47;94173.25;;;19.42;73.78
55590;BME280;41452;42.780;23.116;2022-08-19T00:10:14;94164.69;;;19.45;73.62
55590;BME280;41452;42.780;23.116;2022-08-19T00:12:40;94165.47;;;19.45;73.57
55590;BME280;41452;42.780;23.116;2022-08-19T00:15:09;94176.84;;;19.51;73.58
55590;BME280;41452;42.780;23.116;2022-08-19T00:17:43;94158.94;;;19.37;73.95
55590;BME280;41452;42.780;23.116;2022-08-19T00:20:11;94175.19;;;19.55;73.48
55590;BME280;41452;42.780;23.116;2022-08-19T00:22:38;94182.59;;;19.58;73.56
55590;BME280;41452;42.780;23.116;2022-08-19T00:25:05;94145.34;;;19.39;73.42
55590;BME280;41452;42.780;23.116;2022-08-19T00:27:31;94180.50;;;19.55;73.48
55590;BME280;41452;42.780;23.116;2022-08-19T00:29:57;94112.41;;;19.16;73.56
55590;BME280;41452;42.780;23.116;2022-08-19T00:32:24;94119.13;;;19.13;73.55
55590;BME280;41452;42.780;23.116;2022-08-19T00:34:50;94170.75;;;19.31;74.52
55590;BME280;41452;42.780;23.116;2022-08-19T00:37:18;94101.00;;;18.72;75.50
55590;BME280;41452;42.780;23.116;2022-08-19T00:39:43;94161.03;;;19.22;75.98
55590;BME280;41452;42.780;23.116;2022-08-19T00:42:09;94165.78;;;19.25;75.52
55590;BME280;41452;42.780;23.116;2022-08-19T00:44:34;94165.28;;;19.23;75.39
55590;BME280;41452;42.780;23.116;2022-08-19T00:47:00;94164.19;;;19.24;75.29
55590;BME280;41452;42.780;23.116;2022-08-19T00:49:31;94143.50;;;19.02;74.90
55590;BME280;41452;42.780;23.116;2022-08-19T00:52:09;94166.63;;;19.20;74.90
55590;BME280;41452;42.780;23.116;2022-08-19T00:54:38;94157.44;;;19.12;74.69
55590;BME280;41452;42.780;23.116;2022-08-19T00:57:07;94138.94;;;18.83;74.29
55590;BME280;41452;42.780;23.116;2022-08-19T00:59:35;94161.97;;;18.93;74.52
55590;BME280;41452;42.780;23.116;2022-08-19T01:02:02;94140.19;;;18.67;75.22
55590;BME280;41452;42.780;23.116;2022-08-19T01:04:28;94132.50;;;18.65;75.73
55590;BME280;41452;42.780;23.116;2022-08-19T01:06:53;94163.69;;;18.84;75.72
55590;BME280;41452;42.780;23.116;2022-08-19T01:09:20;94133.94;;;18.57;75.46
55590;BME280;41452;42.780;23.116;2022-08-19T01:11:46;94123.34;;;18.52;75.89
55590;BME280;41452;42.780;23.116;2022-08-19T01:14:12;94141.50;;;18.69;75.58
55590;BME280;41452;42.780;23.116;2022-08-19T01:16:39;94157.88;;;18.82;74.70
55590;BME280;41452;42.780;23.116;2022-08-19T01:19:30;94159.66;;;18.86;74.54
55590;BME280;41452;42.780;23.116;2022-08-19T01:22:06;94143.78;;;18.76;73.91
55590;BME280;41452;42.780;23.116;2022-08-19T01:24:33;94157.03;;;18.81;74.23
55590;BME280;41452;42.780;23.116;2022-08-19T01:26:59;94163.50;;;18.75;74.59
55590;BME280;41452;42.780;23.116;2022-08-19T01:29:24;94155.59;;;18.70;74.58
55590;BME280;41452;42.780;23.116;2022-08-19T01:31:50;94132.75;;;18.45;74.34
55590;BME280;41452;42.780;23.116;2022-08-19T01:34:18;94152.75;;;18.61;75.38
55590;BME280;41452;42.780;23.116;2022-08-19T01:36:45;94119.25;;;18.41;75.39
55590;BME280;41452;42.780;23.116;2022-08-19T01:39:14;94156.19;;;18.61;74.91
55590;BME280;41452;42.780;23.116;2022-08-19T01:41:40;94147.00;;;18.54;74.34
55590;BME280;41452;42.780;23.116;2022-08-19T01:44:07;94164.41;;;18.65;74.14
55590;BME280;41452;42.780;23.116;2022-08-19T01:46:34;94175.41;;;18.58;74.13
55590;BME280;41452;42.780;23.116;2022-08-19T01:48:59;94168.38;;;18.43;74.37
55590;BME280;41452;42.780;23.116;2022-08-19T01:51:26;94168.72;;;18.37;74.89
55590;BME280;41452;42.780;23.116;2022-08-19T01:53:51;94140.84;;;18.10;75.18
55590;BME280;41452;42.780;23.116;2022-08-19T01:56:18;94165.78;;;18.14;75.52
55590;BME280;41452;42.780;23.116;2022-08-19T01:58:48;94162.63;;;18.12;76.00
55590;BME280;41452;42.780;23.116;2022-08-19T02:01:16;94165.78;;;18.14;76.62
55590;BME280;41452;42.780;23.116;2022-08-19T02:03:42;94134.00;;;18.04;77.02
55590;BME280;41452;42.780;23.116;2022-08-19T02:06:07;94162.28;;;18.19;76.74
55590;BME280;41452;42.780;23.116;2022-08-19T02:08:36;94158.28;;;18.21;76.41
55590;BME280;41452;42.780;23.116;2022-08-19T02:11:02;94130.84;;;18.02;76.15
55590;BME280;41452;42.780;23.116;2022-08-19T02:13:28;94162.00;;;18.20;75.81
55590;BME280;41452;42.780;23.116;2022-08-19T02:15:53;94131.28;;;18.09;75.79
55590;BME280;41452;42.780;23.116;2022-08-19T02:18:19;94123.94;;;18.01;76.03
55590;BME280;41452;42.780;23.116;2022-08-19T02:20:44;94159.16;;;18.12;76.18
55590;BME280;41452;42.780;23.116;2022-08-19T02:23:13;94138.84;;;17.97;76.13
55590;BME280;41452;42.780;23.116;2022-08-19T02:25:38;94169.47;;;18.18;76.03
55590;BME280;41452;42.780;23.116;2022-08-19T02:28:04;94168.41;;;18.19;75.96
55590;BME280;41452;42.780;23.116;2022-08-19T02:30:30;94136.72;;;17.99;75.79
55590;BME280;41452;42.780;23.116;2022-08-19T02:32:56;94162.31;;;18.14;76.04
55590;BME280;41452;42.780;23.116;2022-08-19T02:35:21;94163.72;;;18.06;76.00
55590;BME280;41452;42.780;23.116;2022-08-19T02:37:47;94158.66;;;18.10;76.60
55590;BME280;41452;42.780;23.116;2022-08-19T02:40:32;94138.53;;;18.03;76.30
55590;BME280;41452;42.780;23.116;2022-08-19T02:43:09;94149.91;;;18.09;76.52
55590;BME280;41452;42.780;23.116;2022-08-19T02:45:37;94145.09;;;18.11;76.24
55590;BME280;41452;42.780;23.116;2022-08-19T02:48:03;94143.50;;;18.10;75.99
55590;BME280;41452;42.780;23.116;2022-08-19T02:50:30;94142.97;;;18.08;76.38
55590;BME280;41452;42.780;23.116;2022-08-19T02:52:55;94119.56;;;17.86;76.38
55590;BME280;41452;42.780;23.116;2022-08-19T02:55:20;94158.88;;;18.13;76.18
55590;BME280;41452;42.780;23.116;2022-08-19T02:57:46;94123.53;;;17.89;76.30
55590;BME280;41452;42.780;23.116;2022-08-19T03:00:12;94139.41;;;17.94;76.51
55590;BME280;41452;42.780;23.116;2022-08-19T03:02:39;94169.59;;;18.03;76.77
55590;BME280;41452;42.780;23.116;2022-08-19T03:05:05;94140.41;;;17.68;76.94
55590;BME280;41452;42.780;23.116;2022-08-19T03:07:30;94168.13;;;17.92;77.81
55590;BME280;41452;42.780;23.116;2022-08-19T03:09:56;94169.72;;;17.93;77.43
55590;BME280;41452;42.780;23.116;2022-08-19T03:12:21;94152.06;;;17.73;77.15
55590;BME280;41452;42.780;23.116;2022-08-19T03:14:47;94175.19;;;17.72;77.46
55590;BME280;41452;42.780;23.116;2022-08-19T03:17:12;94169.88;;;17.72;78.04
55590;BME280;41452;42.780;23.116;2022-08-19T03:19:38;94170.94;;;17.71;77.99
55590;BME280;41452;42.780;23.116;2022-08-19T03:22:03;94175.19;;;17.72;77.89
55590;BME280;41452;42.780;23.116;2022-08-19T03:24:30;94115.25;;;17.32;77.71
55590;BME280;41452;42.780;23.116;2022-08-19T03:26:56;94172.56;;;17.67;77.66
55590;BME280;41452;42.780;23.116;2022-08-19T03:29:29;94172.00;;;17.70;77.50
55590;BME280;41452;42.780;23.116;2022-08-19T03:31:59;94179.19;;;17.70;77.13
55590;BME280;41452;42.780;23.116;2022-08-19T03:34:28;94171.50;;;17.68;77.28
55590;BME280;41452;42.780;23.116;2022-08-19T03:36:55;94176.09;;;17.57;77.28
55590;BME280;41452;42.780;23.116;2022-08-19T03:39:22;94176.75;;;17.39;77.46
55590;BME280;41452;42.780;23.116;2022-08-19T03:41:49;94186.59;;;17.38;78.45
55590;BME280;41452;42.780;23.116;2022-08-19T03:44:21;94176.56;;;17.30;78.80
55590;BME280;41452;42.780;23.116;2022-08-19T03:46:51;94158.38;;;17.13;78.66
55590;BME280;41452;42.780;23.116;2022-08-19T03:49:18;94183.94;;;17.38;78.50
55590;BME280;41452;42.780;23.116;2022-08-19T03:51:44;94188.44;;;17.43;78.40
55590;BME280;41452;42.780;23.116;2022-08-19T03:54:12;94191.84;;;17.48;77.93
55590;BME280;41452;42.780;23.116;2022-08-19T03:56:40;94193.63;;;17.53;78.08
55590;BME280;41452;42.780;23.116;2022-08-19T03:59:10;94164.88;;;17.31;78.27
55590;BME280;41452;42.780;23.116;2022-08-19T04:01:36;94129.72;;;17.10;78.73
55590;BME280;41452;42.780;23.116;2022-08-19T04:04:02;94199.19;;;17.57;78.84
55590;BME280;41452;42.780;23.116;2022-08-19T04:06:31;94182.88;;;17.39;78.48
55590;BME280;41452;42.780;23.116;2022-08-19T04:08:58;94190.53;;;17.41;79.27
55590;BME280;41452;42.780;23.116;2022-08-19T04:11:30;94198.59;;;17.31;79.15
55590;BME280;41452;42.780;23.116;2022-08-19T04:13:56;94201.22;;;17.36;79.80
55590;BME280;41452;42.780;23.116;2022-08-19T04:16:24;94177.22;;;17.12;79.85
55590;BME280;41452;42.780;23.116;2022-08-19T04:18:54;94198.38;;;17.22;79.67
55590;BME280;41452;42.780;23.116;2022-08-19T04:21:25;94208.66;;;17.28;80.58
55590;BME280;41452;42.780;23.116;2022-08-19T04:23:51;94204.72;;;17.26;80.44
55590;BME280;41452;42.780;23.116;2022-08-19T04:26:20;94204.47;;;17.22;80.92
55590;BME280;41452;42.780;23.116;2022-08-19T04:28:46;94202.38;;;17.14;81.41
55590;BME280;41452;42.780;23.116;2022-08-19T04:31:17;94198.94;;;17.14;81.55
55590;BME280;41452;42.780;23.116;2022-08-19T04:33:43;94202.88;;;17.21;81.95
55590;BME280;41452;42.780;23.116;2022-08-19T04:36:18;94175.34;;;17.12;83.04
55590;BME280;41452;42.780;23.116;2022-08-19T04:38:44;94212.59;;;17.41;83.27
55590;BME280;41452;42.780;23.116;2022-08-19T04:41:09;94208.53;;;17.49;83.12
55590;BME280;41452;42.780;23.116;2022-08-19T04:43:53;94210.41;;;17.48;83.09
55590;BME280;41452;42.780;23.116;2022-08-19T04:46:19;94207.72;;;17.54;83.37
55590;BME280;41452;42.780;23.116;2022-08-19T04:48:45;94149.53;;;17.23;83.78
55590;BME280;41452;42.780;23.116;2022-08-19T04:51:12;94197.38;;;17.52;83.67
55590;BME280;41452;42.780;23.116;2022-08-19T04:53:40;94187.03;;;17.51;84.33
55590;BME280;41452;42.780;23.116;2022-08-19T04:56:11;94161.59;;;17.44;84.14
55590;BME280;41452;42.780;23.116;2022-08-19T04:58:38;94213.63;;;17.80;84.94
55590;BME280;41452;42.780;23.116;2022-08-19T05:01:06;94212.00;;;17.89;85.74
55590;BME280;41452;42.780;23.116;2022-08-19T05:03:32;94206.91;;;17.93;85.88
55590;BME280;41452;42.780;23.116;2022-08-19T05:06:04;94214.25;;;18.01;86.49
55590;BME280;41452;42.780;23.116;2022-08-19T05:08:32;94211.00;;;18.09;86.85
55590;BME280;41452;42.780;23.116;2022-08-19T05:10:59;94201.72;;;18.07;87.20
55590;BME280;41452;42.780;23.116;2022-08-19T05:13:26;94209.09;;;18.15;87.25
55590;BME280;41452;42.780;23.116;2022-08-19T05:15:59;94206.13;;;18.21;87.75
55590;BME280;41452;42.780;23.116;2022-08-19T05:18:25;94165.38;;;18.02;87.55
55590;BME280;41452;42.780;23.116;2022-08-19T05:21:14;94218.13;;;18.43;87.14
55590;BME280;41452;42.780;23.116;2022-08-19T05:23:58;94197.69;;;18.38;86.62
55590;BME280;41452;42.780;23.116;2022-08-19T05:26:25;94186.25;;;18.38;86.54
55590;BME280;41452;42.780;23.116;2022-08-19T05:28:52;94221.78;;;18.71;86.89
55590;BME280;41452;42.780;23.116;2022-08-19T05:31:17;94222.75;;;18.80;85.61
55590;BME280;41452;42.780;23.116;2022-08-19T05:33:42;94189.66;;;18.68;85.28
55590;BME280;41452;42.780;23.116;2022-08-19T05:36:08;94223.66;;;18.95;84.77
55590;BME280;41452;42.780;23.116;2022-08-19T05:38:34;94218.28;;;19.00;85.26
55590;BME280;41452;42.780;23.116;2022-08-19T05:41:05;94221.81;;;19.14;84.25
55590;BME280;41452;42.780;23.116;2022-08-19T05:43:31;94208.84;;;19.08;84.57
55590;BME280;41452;42.780;23.116;2022-08-19T05:45:56;94145.84;;;18.84;84.03
55590;BME280;41452;42.780;23.116;2022-08-19T05:48:22;94218.59;;;19.36;83.11
55590;BME280;41452;42.780;23.116;2022-08-19T05:50:47;94212.13;;;19.43;83.67
55590;BME280;41452;42.780;23.116;2022-08-19T05:53:15;94215.19;;;19.50;82.90
55590;BME280;41452;42.780;23.116;2022-08-19T05:55:41;94182.19;;;19.32;82.03
55590;BME280;41452;42.780;23.116;2022-08-19T05:58:06;94218.44;;;19.66;82.13
55590;BME280;41452;42.780;23.116;2022-08-19T06:00:34;94215.69;;;19.71;80.16
55590;BME280;41452;42.780;23.116;2022-08-19T06:02:59;94188.91;;;19.62;79.87
55590;BME280;41452;42.780;23.116;2022-08-19T06:05:29;94215.16;;;19.88;80.27
55590;BME280;41452;42.780;23.116;2022-08-19T06:07:55;94221.94;;;19.99;82.79
55590;BME280;41452;42.780;23.116;2022-08-19T06:10:20;94192.00;;;19.88;82.28
55590;BME280;41452;42.780;23.116;2022-08-19T06:12:47;94223.25;;;20.16;80.16
55590;BME280;41452;42.780;23.116;2022-08-19T06:15:13;94207.53;;;20.14;80.52
55590;BME280;41452;42.780;23.116;2022-08-19T06:17:39;94223.00;;;20.31;80.50
55590;BME280;41452;42.780;23.116;2022-08-19T06:20:09;94218.84;;;20.39;80.09
55590;BME280;41452;42.780;23.116;2022-08-19T06:22:43;94224.00;;;20.49;81.16
55590;BME280;41452;42.780;23.116;2022-08-19T06:25:10;94220.34;;;20.59;80.86
55590;BME280;41452;42.780;23.116;2022-08-19T06:27:36;94181.13;;;20.45;80.76
55590;BME280;41452;42.780;23.116;2022-08-19T06:30:03;94216.81;;;20.77;82.12
55590;BME280;41452;42.780;23.116;2022-08-19T06:32:28;94165.03;;;20.50;82.24
55590;BME280;41452;42.780;23.116;2022-08-19T06:34:54;94188.53;;;20.76;81.22
55590;BME280;41452;42.780;23.116;2022-08-19T06:37:20;94231.72;;;21.06;79.75
55590;BME280;41452;42.780;23.116;2022-08-19T06:39:47;94230.13;;;21.19;80.72
55590;BME280;41452;42.780;23.116;2022-08-19T06:42:13;94197.59;;;21.03;79.31
55590;BME280;41452;42.780;23.116;2022-08-19T06:44:43;94224.16;;;21.36;77.37
55590;BME280;41452;42.780;23.116;2022-08-19T06:47:11;94210.91;;;21.31;78.36
55590;BME280;41452;42.780;23.116;2022-08-19T06:49:37;94228.56;;;21.54;78.04
55590;BME280;41452;42.780;23.116;2022-08-19T06:52:03;94208.13;;;21.50;76.34
55590;BME280;41452;42.780;23.116;2022-08-19T06:54:29;94213.84;;;21.57;75.26
55590;BME280;41452;42.780;23.116;2022-08-19T06:57:00;94233.84;;;21.82;76.10
55590;BME280;41452;42.780;23.116;2022-08-19T06:59:28;94232.41;;;21.84;75.67
55590;BME280;41452;42.780;23.116;2022-08-19T07:01:56;94186.69;;;21.63;75.95
55590;BME280;41452;42.780;23.116;2022-08-19T07:04:25;94241.16;;;21.99;75.52
55590;BME280;41452;42.780;23.116;2022-08-19T07:07:07;94239.97;;;22.05;75.79
55590;BME280;41452;42.780;23.116;2022-08-19T07:09:38;94218.44;;;22.10;73.74
55590;BME280;41452;42.780;23.116;2022-08-19T07:12:06;94221.22;;;22.28;75.61
55590;BME280;41452;42.780;23.116;2022-08-19T07:14:32;94227.31;;;22.42;75.31
55590;BME280;41452;42.780;23.116;2022-08-19T07:17:04;94211.25;;;22.42;74.16
55590;BME280;41452;42.780;23.116;2022-08-19T07:19:30;94212.38;;;22.50;75.45
55590;BME280;41452;42.780;23.116;2022-08-19T07:21:56;94226.91;;;22.66;71.96
55590;BME280;41452;42.780;23.116;2022-08-19T07:24:23;94223.84;;;22.82;71.19
55590;BME280;41452;42.780;23.116;2022-08-19T07:26:51;94204.75;;;22.74;72.39
55590;BME280;41452;42.780;23.116;2022-08-19T07:29:18;94230.66;;;22.96;72.27
55590;BME280;41452;42.780;23.116;2022-08-19T07:31:44;94235.75;;;23.07;71.70
55590;BME280;41452;42.780;23.116;2022-08-19T07:34:11;94180.03;;;22.77;69.67
55590;BME280;41452;42.780;23.116;2022-08-19T07:36:38;94227.28;;;23.22;70.14
55590;BME280;41452;42.780;23.116;2022-08-19T07:39:15;94225.56;;;23.35;70.27
55590;BME280;41452;42.780;23.116;2022-08-19T07:41:41;94205.53;;;23.32;68.92
55590;BME280;41452;42.780;23.116;2022-08-19T07:44:08;94190.25;;;23.33;68.07
55590;BME280;41452;42.780;23.116;2022-08-19T07:46:36;94221.94;;;23.66;67.43
55590;BME280;41452;42.780;23.116;2022-08-19T07:49:04;94206.31;;;23.68;66.87
55590;BME280;41452;42.780;23.116;2022-08-19T07:51:30;94233.94;;;23.95;67.11
55590;BME280;41452;42.780;23.116;2022-08-19T07:53:56;94232.06;;;24.04;68.42
55590;BME280;41452;42.780;23.116;2022-08-19T07:56:22;94238.19;;;24.13;66.04
55590;BME280;41452;42.780;23.116;2022-08-19T07:58:50;94231.69;;;24.23;66.39
55590;BME280;41452;42.780;23.116;2022-08-19T08:01:22;94237.50;;;24.34;65.88
55590;BME280;41452;42.780;23.116;2022-08-19T08:03:50;94234.94;;;24.46;67.49
55590;BME280;41452;42.780;23.116;2022-08-19T08:06:34;94206.09;;;24.34;65.97
55590;BME280;41452;42.780;23.116;2022-08-19T08:09:25;94228.00;;;24.62;67.77
55590;BME280;41452;42.780;23.116;2022-08-19T08:11:57;94226.97;;;24.76;66.43
55590;BME280;41452;42.780;23.116;2022-08-19T08:14:33;94226.31;;;24.88;63.73
55590;BME280;41452;42.780;23.116;2022-08-19T08:17:00;94190.78;;;24.82;60.58
55590;BME280;41452;42.780;23.116;2022-08-19T08:19:27;94218.94;;;25.05;62.48
55590;BME280;41452;42.780;23.116;2022-08-19T08:21:55;94218.03;;;25.22;64.03
55590;BME280;41452;42.780;23.116;2022-08-19T08:24:22;94217.69;;;25.33;61.19
55590;BME280;41452;42.780;23.116;2022-08-19T08:26:48;94222.63;;;25.52;61.49
55590;BME280;41452;42.780;23.116;2022-08-19T08:29:14;94185.56;;;25.57;63.57
55590;BME280;41452;42.780;23.116;2022-08-19T08:31:42;94212.94;;;25.93;60.56
55590;BME280;41452;42.780;23.116;2022-08-19T08:34:08;94197.13;;;25.91;60.97
55590;BME280;41452;42.780;23.116;2022-08-19T08:36:37;94215.50;;;26.10;59.93
55590;BME280;41452;42.780;23.116;2022-08-19T08:39:09;94215.78;;;26.30;60.29
55590;BME280;41452;42.780;23.116;2022-08-19T08:44:21;94177.44;;;26.33;53.32
55590;BME280;41452;42.780;23.116;2022-08-19T08:46:50;94207.13;;;26.70;52.29
55590;BME280;41452;42.780;23.116;2022-08-19T08:49:39;94211.19;;;26.88;56.04
55590;BME280;41452;42.780;23.116;2022-08-19T08:52:11;94215.00;;;27.00;53.41
55590;BME280;41452;42.780;23.116;2022-08-19T08:54:41;94203.75;;;27.10;53.13
55590;BME280;41452;42.780;23.116;2022-08-19T08:57:13;94194.06;;;27.21;50.22
55590;BME280;41452;42.780;23.116;2022-08-19T08:59:41;94203.31;;;27.33;52.44
55590;BME280;41452;42.780;23.116;2022-08-19T09:02:08;94203.94;;;27.54;51.87
55590;BME280;41452;42.780;23.116;2022-08-19T09:04:35;94199.19;;;27.63;51.30
55590;BME280;41452;42.780;23.116;2022-08-19T09:09:46;94190.00;;;27.93;44.59
55590;BME280;41452;42.780;23.116;2022-08-19T09:12:23;94187.34;;;28.09;47.62
55590;BME280;41452;42.780;23.116;2022-08-19T09:14:55;94188.41;;;28.20;41.61
55590;BME280;41452;42.780;23.116;2022-08-19T09:17:26;94165.06;;;28.12;45.38
55590;BME280;41452;42.780;23.116;2022-08-19T09:22:29;94186.34;;;28.45;46.70
55590;BME280;41452;42.780;23.116;2022-08-19T09:24:55;94179.47;;;28.48;44.28
55590;BME280;41452;42.780;23.116;2022-08-19T09:27:22;94139.50;;;28.37;39.28
55590;BME280;41452;42.780;23.116;2022-08-19T09:29:51;94179.66;;;28.71;41.63
55590;BME280;41452;42.780;23.116;2022-08-19T09:32:17;94151.34;;;28.65;39.82
55590;BME280;41452;42.780;23.116;2022-08-19T09:34:43;94160.03;;;28.90;44.26
55590;BME280;41452;42.780;23.116;2022-08-19T09:37:09;94141.03;;;28.86;39.03
55590;BME280;41452;42.780;23.116;2022-08-19T09:39:34;94146.16;;;29.07;37.13
55590;BME280;41452;42.780;23.116;2022-08-19T09:42:00;94169.47;;;29.31;36.82
55590;BME280;41452;42.780;23.116;2022-08-19T09:44:25;94174.41;;;29.45;35.58
55590;BME280;41452;42.780;23.116;2022-08-19T09:46:51;94174.69;;;29.60;38.11
55590;BME280;41452;42.780;23.116;2022-08-19T09:49:17;94162.59;;;29.73;35.94
55590;BME280;41452;42.780;23.116;2022-08-19T09:51:44;94146.31;;;29.69;37.07
55590;BME280;41452;42.780;23.116;2022-08-19T09:54:09;94164.50;;;29.88;35.45
55590;BME280;41452;42.780;23.116;2022-08-19T09:56:35;94157.16;;;29.89;36.80
55590;BME280;41452;42.780;23.116;2022-08-19T09:59:02;94154.44;;;29.89;36.38
55590;BME280;41452;42.780;23.116;2022-08-19T10:01:30;94152.94;;;29.91;37.47
55590;BME280;41452;42.780;23.116;2022-08-19T10:03:57;94156.94;;;29.98;38.26
55590;BME280;41452;42.780;23.116;2022-08-19T10:06:25;94148.63;;;30.10;37.21
55590;BME280;41452;42.780;23.116;2022-08-19T10:08:51;94150.44;;;30.25;36.58
55590;BME280;41452;42.780;23.116;2022-08-19T10:11:18;94136.47;;;30.23;34.47
55590;BME280;41452;42.780;23.116;2022-08-19T10:13:44;94140.75;;;30.44;35.58
55590;BME280;41452;42.780;23.116;2022-08-19T10:16:14;94139.34;;;30.54;36.34
55590;BME280;41452;42.780;23.116;2022-08-19T10:18:40;94142.41;;;30.52;34.62
55590;BME280;41452;42.780;23.116;2022-08-19T10:21:20;94135.19;;;30.60;33.75
55590;BME280;41452;42.780;23.116;2022-08-19T10:23:48;94135.72;;;30.69;36.01
55590;BME280;41452;42.780;23.116;2022-08-19T10:26:17;94126.31;;;30.63;33.35
55590;BME280;41452;42.780;23.116;2022-08-19T10:28:43;94122.06;;;30.62;37.91
55590;BME280;41452;42.780;23.116;2022-08-19T10:31:11;94132.22;;;30.68;36.96
55590;BME280;41452;42.780;23.116;2022-08-19T10:33:38;94124.69;;;30.81;38.24
55590;BME280;41452;42.780;23.116;2022-08-19T10:36:13;94127.31;;;31.01;37.56
55590;BME280;41452;42.780;23.116;2022-08-19T10:38:43;94119.31;;;31.12;35.92
55590;BME280;41452;42.780;23.116;2022-08-19T10:41:19;94110.88;;;31.17;36.54
55590;BME280;41452;42.780;23.116;2022-08-19T10:43:45;94114.72;;;31.16;35.86
55590;BME280;41452;42.780;23.116;2022-08-19T10:46:14;94112.91;;;31.23;35.06
55590;BME280;41452;42.780;23.116;2022-08-19T10:48:41;94112.56;;;31.28;35.31
55590;BME280;41452;42.780;23.116;2022-08-19T10:51:07;94118.19;;;31.43;35.32
55590;BME280;41452;42.780;23.116;2022-08-19T10:53:51;94078.56;;;31.35;33.46
55590;BME280;41452;42.780;23.116;2022-08-19T10:56:17;94106.13;;;31.71;36.41
55590;BME280;41452;42.780;23.116;2022-08-19T10:59:02;94106.22;;;31.81;33.13
55590;BME280;41452;42.780;23.116;2022-08-19T11:01:29;94111.69;;;31.85;33.20
55590;BME280;41452;42.780;23.116;2022-08-19T11:03:56;94107.88;;;31.90;32.46
55590;BME280;41452;42.780;23.116;2022-08-19T11:06:23;94088.84;;;31.86;33.67
55590;BME280;41452;42.780;23.116;2022-08-19T11:08:48;94082.25;;;31.87;33.23
55590;BME280;41452;42.780;23.116;2022-08-19T11:11:13;94107.31;;;32.07;31.74
55590;BME280;41452;42.780;23.116;2022-08-19T11:13:40;94096.75;;;32.02;33.81
55590;BME280;41452;42.780;23.116;2022-08-19T11:16:12;94097.09;;;31.97;33.05
55590;BME280;41452;42.780;23.116;2022-08-19T11:18:42;94099.84;;;32.00;32.32
55590;BME280;41452;42.780;23.116;2022-08-19T11:21:20;94072.50;;;31.82;34.25
55590;BME280;41452;42.780;23.116;2022-08-19T11:23:47;94088.16;;;31.96;33.41
55590;BME280;41452;42.780;23.116;2022-08-19T11:26:14;94067.13;;;31.86;34.01
55590;BME280;41452;42.780;23.116;2022-08-19T11:28:41;94042.31;;;31.88;31.85
55590;BME280;41452;42.780;23.116;2022-08-19T11:31:15;94074.78;;;32.14;32.00
55590;BME280;41452;42.780;23.116;2022-08-19T11:33:41;94079.50;;;32.21;33.19
55590;BME280;41452;42.780;23.116;2022-08-19T11:36:07;94081.13;;;32.29;33.45
55590;BME280;41452;42.780;23.116;2022-08-19T11:38:33;94039.06;;;32.12;34.28
55590;BME280;41452;42.780;23.116;2022-08-19T11:41:03;94065.66;;;32.40;35.76
55590;BME280;41452;42.780;23.116;2022-08-19T11:43:29;94064.16;;;32.43;33.23
55590;BME280;41452;42.780;23.116;2022-08-19T11:45:56;94040.41;;;32.36;35.91
55590;BME280;41452;42.780;23.116;2022-08-19T11:48:22;94054.09;;;32.51;33.41
55590;BME280;41452;42.780;23.116;2022-08-19T11:50:49;94061.22;;;32.63;33.01
55590;BME280;41452;42.780;23.116;2022-08-19T11:53:15;94049.63;;;32.69;30.85
55590;BME280;41452;42.780;23.116;2022-08-19T11:55:41;93984.94;;;32.41;32.45
55590;BME280;41452;42.780;23.116;2022-08-19T11:58:07;94048.91;;;32.83;32.12
55590;BME280;41452;42.780;23.116;2022-08-19T12:00:34;94055.13;;;32.80;32.53
55590;BME280;41452;42.780;23.116;2022-08-19T12:03:02;94054.28;;;32.76;31.12
55590;BME280;41452;42.780;23.116;2022-08-19T12:05:28;94045.00;;;32.77;32.34
55590;BME280;41452;42.780;23.116;2022-08-19T12:07:53;94037.28;;;32.86;30.73
55590;BME280;41452;42.780;23.116;2022-08-19T12:10:20;94015.09;;;32.81;32.33
55590;BME280;41452;42.780;23.116;2022-08-19T12:12:46;93993.72;;;32.75;31.20
55590;BME280;41452;42.780;23.116;2022-08-19T12:15:12;93979.75;;;32.77;31.13
55590;BME280;41452;42.780;23.116;2022-08-19T12:17:41;94002.34;;;32.95;30.70
55590;BME280;41452;42.780;23.116;2022-08-19T12:20:08;94030.78;;;33.09;30.97
55590;BME280;41452;42.780;23.116;2022-08-19T12:22:36;94028.81;;;33.06;29.87
55590;BME280;41452;42.780;23.116;2022-08-19T12:25:03;94025.31;;;33.02;29.06
55590;BME280;41452;42.780;23.116;2022-08-19T12:27:29;94027.28;;;33.05;30.01
55590;BME280;41452;42.780;23.116;2022-08-19T12:29:54;94020.56;;;32.88;29.97
55590;BME280;41452;42.780;23.116;2022-08-19T12:32:19;94005.41;;;32.83;33.34
55590;BME280;41452;42.780;23.116;2022-08-19T12:34:46;94019.84;;;32.94;31.47
55590;BME280;41452;42.780;23.116;2022-08-19T12:37:12;94009.72;;;32.91;32.50
55590;BME280;41452;42.780;23.116;2022-08-19T12:39:40;93993.72;;;32.79;32.80
55590;BME280;41452;42.780;23.116;2022-08-19T12:42:08;94010.94;;;32.97;30.09
55590;BME280;41452;42.780;23.116;2022-08-19T12:44:35;94013.25;;;33.03;31.20
55590;BME280;41452;42.780;23.116;2022-08-19T12:47:01;93985.59;;;32.86;29.40
55590;BME280;41452;42.780;23.116;2022-08-19T12:49:29;93986.03;;;32.95;32.39
55590;BME280;41452;42.780;23.116;2022-08-19T12:51:55;94004.75;;;33.11;31.06
55590;BME280;41452;42.780;23.116;2022-08-19T12:54:20;94007.91;;;33.13;28.90
55590;BME280;41452;42.780;23.116;2022-08-19T12:56:46;93994.63;;;33.05;33.08
55590;BME280;41452;42.780;23.116;2022-08-19T12:59:11;93990.72;;;32.99;33.19
55590;BME280;41452;42.780;23.116;2022-08-19T13:01:36;93978.63;;;32.85;33.19